Time,TemperatureF,DewpointF,PressureIn,WindDirection,WindDirectionDegrees,WindSpeedMPH,WindSpeedGustMPH,Humidity,HourlyPrecipIn,Conditions,Clouds,dailyrainin,SolarRadiationWatts/m^2,SoftwareType,DateUTC
2013-11-25 00:03:00,32.4,14.9,30.40,ESE,108,3.0,5.3,48,0.00,OVC,,0.00,0.0,WeatherDisplay:10.37,2013-11-25 06:03:00,
2013-11-25 00:08:00,32.4,14.9,30.40,SE,144,4.6,8.1,48,0.00,OVC,,0.00,0.0,WeatherDisplay:10.37,2013-11-25 06:08:00,
2013-11-25 00:13:00,32.4,14.9,30.40,ESE,118,4.0,5.8,48,0.00,OVC,,0.00,0.0,WeatherDisplay:10.37,2013-11-25 06:13:00,
2013-11-25 00:18:00,32.3,15.3,30.40,SE,138,4.0,5.8,49,0.00,OVC,,0.00,0.0,WeatherDisplay:10.37,2013-11-25 06:18:00,
2013-11-25 00:23:00,32.4,15.8,30.39,ESE,108,6.7,6.9,50,0.00,OVC,,0.00,0.0,WeatherDisplay:10.37,2013-11-25 06:23:00,
2013-11-25 00:28:00,32.3,14.8,30.39,ESE,116,5.2,8.1,48,0.00,OVC,,0.00,0.0,WeatherDisplay:10.37,2013-11-25 06:28:00,
2013-11-25 00:33:00,32.3,15.7,30.38,ENE,74,8.0,10.4,50,0.00,OVC,,0.00,0.0,WeatherDisplay:10.37,2013-11-25 06:33:00,
2013-11-25 00:38:00,32.3,15.3,30.38,ENE,78,6.5,9.2,49,0.00,OVC,,0.00,0.0,WeatherDisplay:10.37,2013-11-25 06:38:00,
2013-11-25 00:43:00,32.2,14.7,30.38,East,79,5.4,10.4,48,0.00,OVC,,0.00,0.0,WeatherDisplay:10.37,2013-11-25 06:43:00,
2013-11-25 00:48:00,32.2,14.7,30.39,East,98,6.0,8.1,48,0.00,OVC,,0.00,0.0,WeatherDisplay:10.37,2013-11-25 06:48:00,
2013-11-25 00:53:00,32.1,15.1,30.38,ESE,107,6.8,9.2,49,0.00,OVC,,0.00,0.0,WeatherDisplay:10.37,2013-11-25 06:53:00,
2013-11-25 00:58:00,32.1,15.5,30.38,East,94,5.1,8.1,50,0.00,OVC,,0.00,0.0,WeatherDisplay:10.37,2013-11-25 06:58:00,
2013-11-25 01:03:00,32.1,14.6,30.38,East,84,7.9,10.4,48,0.00,OVC,,0.00,0.0,WeatherDisplay:10.37,2013-11-25 07:03:00,
2013-11-25 01:08:00,32.0,15.0,30.37,ENE,71,6.9,10.4,49,0.00,OVC,,0.00,0.0,WeatherDisplay:10.37,2013-11-25 07:08:00,
2013-11-25 01:13:00,32.0,15.0,30.37,East,89,12.6,17.3,49,0.00,OVC,,0.00,0.0,WeatherDisplay:10.37,2013-11-25 07:13:00,
2013-11-25 01:18:00,31.9,14.9,30.37,East,93,7.1,9.2,49,0.00,OVC,,0.00,0.0,WeatherDisplay:10.37,2013-11-25 07:18:00,
2013-11-25 01:23:00,31.8,14.8,30.37,ESE,105,4.3,6.9,49,0.00,OVC,,0.00,0.0,WeatherDisplay:10.37,2013-11-25 07:23:00,
2013-11-25 01:28:00,31.7,14.7,30.37,ESE,106,8.6,10.4,49,0.00,OVC,,0.00,0.0,WeatherDisplay:10.37,2013-11-25 07:28:00,
2013-11-25 01:33:00,31.7,14.7,30.37,East,91,6.9,11.5,49,0.00,OVC,,0.00,0.0,WeatherDisplay:10.37,2013-11-25 07:33:00,
2013-11-25 01:38:00,31.7,14.7,30.38,ENE,76,5.1,6.9,49,0.00,OVC,,0.00,0.0,WeatherDisplay:10.37,2013-11-25 07:38:00,
2013-11-25 01:43:00,31.8,15.3,30.38,East,81,3.7,4.0,50,0.00,OVC,,0.00,0.0,WeatherDisplay:10.37,2013-11-25 07:43:00,
2013-11-25 01:48:00,31.9,15.8,30.38,SE,126,1.9,4.0,51,0.00,OVC,,0.00,0.0,WeatherDisplay:10.37,2013-11-25 07:48:00,
2013-11-25 01:53:00,31.8,14.8,30.38,East,92,6.0,8.1,49,0.00,OVC,,0.00,0.0,WeatherDisplay:10.37,2013-11-25 07:53:00,
2013-11-25 01:58:00,31.8,14.8,30.38,East,94,6.1,10.6,49,0.00,OVC,,0.00,0.0,WeatherDisplay:10.37,2013-11-25 07:58:00,
2013-11-25 02:03:00,31.8,14.8,30.38,ESE,105,1.5,2.6,49,0.00,OVC,,0.00,0.0,WeatherDisplay:10.37,2013-11-25 08:03:00,
2013-11-25 02:08:00,31.8,14.8,30.38,ENE,78,4.2,6.9,49,0.00,OVC,,0.00,0.0,WeatherDisplay:10.37,2013-11-25 08:08:00,
2013-11-25 02:13:00,31.8,14.8,30.38,ESE,109,2.9,3.5,49,0.00,OVC,,0.00,0.0,WeatherDisplay:10.37,2013-11-25 08:13:00,
2013-11-25 02:18:00,31.8,15.3,30.38,ESE,117,3.3,5.8,50,0.00,OVC,,0.00,0.0,WeatherDisplay:10.37,2013-11-25 08:18:00,
2013-11-25 02:23:00,31.8,14.8,30.38,East,80,4.9,6.9,49,0.00,OVC,,0.00,0.0,WeatherDisplay:10.37,2013-11-25 08:23:00,
2013-11-25 02:28:00,31.7,14.7,30.38,East,92,3.7,6.9,49,0.00,OVC,,0.00,0.0,WeatherDisplay:10.37,2013-11-25 08:28:00,
2013-11-25 02:33:00,31.7,14.7,30.37,ENE,69,5.5,9.2,49,0.00,OVC,,0.00,0.0,WeatherDisplay:10.37,2013-11-25 08:33:00,
2013-11-25 02:38:00,31.7,14.7,30.38,ESE,122,6.3,8.1,49,0.00,OVC,,0.00,0.0,WeatherDisplay:10.37,2013-11-25 08:38:00,
2013-11-25 02:43:00,31.7,15.2,30.37,East,82,2.0,3.5,50,0.00,OVC,,0.00,0.0,WeatherDisplay:10.37,2013-11-25 08:43:00,
2013-11-25 02:48:00,31.7,15.2,30.38,ESE,108,5.2,8.1,50,0.00,OVC,,0.00,0.0,WeatherDisplay:10.37,2013-11-25 08:48:00,
2013-11-25 02:53:00,31.7,15.2,30.38,ENE,63,7.9,9.2,50,0.00,OVC,,0.00,0.0,WeatherDisplay:10.37,2013-11-25 08:53:00,
2013-11-25 02:58:00,31.7,15.6,30.37,ESE,123,4.5,6.9,51,0.00,OVC,,0.00,0.0,WeatherDisplay:10.37,2013-11-25 08:58:00,
2013-11-25 03:03:00,31.6,15.5,30.37,East,97,3.8,5.8,51,0.00,OVC,,0.00,0.0,WeatherDisplay:10.37,2013-11-25 09:03:00,
2013-11-25 03:08:00,31.6,15.1,30.37,ESE,120,7.2,8.1,50,0.00,OVC,,0.00,0.0,WeatherDisplay:10.37,2013-11-25 09:08:00,
2013-11-25 03:13:00,31.6,15.5,30.37,East,90,2.3,3.5,51,0.00,OVC,,0.00,0.0,WeatherDisplay:10.37,2013-11-25 09:13:00,
2013-11-25 03:18:00,31.6,15.5,30.37,East,98,3.8,6.6,51,0.00,OVC,,0.00,0.0,WeatherDisplay:10.37,2013-11-25 09:18:00,
2013-11-25 03:23:00,31.6,16.0,30.37,East,101,2.5,6.9,52,0.00,OVC,,0.00,0.0,WeatherDisplay:10.37,2013-11-25 09:23:00,
2013-11-25 03:28:00,31.5,15.9,30.37,SE,130,4.2,6.9,52,0.00,OVC,,0.00,0.0,WeatherDisplay:10.37,2013-11-25 09:28:00,
2013-11-25 03:33:00,31.6,16.0,30.37,ESE,117,1.3,3.5,52,0.00,OVC,,0.00,0.0,WeatherDisplay:10.37,2013-11-25 09:33:00,
2013-11-25 03:38:00,31.5,16.3,30.38,SE,124,5.1,5.8,53,0.00,OVC,,0.00,0.0,WeatherDisplay:10.37,2013-11-25 09:38:00,
2013-11-25 03:43:00,31.5,15.9,30.38,SE,130,5.3,9.2,52,0.00,OVC,,0.00,0.0,WeatherDisplay:10.37,2013-11-25 09:43:00,
2013-11-25 03:48:00,31.5,16.3,30.38,ENE,69,1.8,5.3,53,0.00,OVC,,0.00,0.0,WeatherDisplay:10.37,2013-11-25 09:48:00,
2013-11-25 03:53:00,31.6,16.4,30.38,East,83,3.9,6.9,53,0.00,OVC,,0.00,0.0,WeatherDisplay:10.37,2013-11-25 09:53:00,
2013-11-25 03:58:00,31.5,16.7,30.37,ENE,58,0.6,4.0,54,0.00,OVC,,0.00,0.0,WeatherDisplay:10.37,2013-11-25 09:58:00,
2013-11-25 04:03:00,31.5,16.3,30.36,East,94,6.0,8.1,53,0.00,OVC,,0.00,0.0,WeatherDisplay:10.37,2013-11-25 10:03:00,
2013-11-25 04:08:00,31.5,16.7,30.36,East,82,3.8,3.8,54,0.00,OVC,,0.00,0.0,WeatherDisplay:10.37,2013-11-25 10:08:00,
2013-11-25 04:13:00,31.4,16.7,30.36,ESE,110,3.2,5.3,54,0.00,OVC,,0.00,0.0,WeatherDisplay:10.37,2013-11-25 10:13:00,
2013-11-25 04:18:00,31.4,16.7,30.37,East,82,2.5,3.5,54,0.00,OVC,,0.00,0.0,WeatherDisplay:10.37,2013-11-25 10:18:00,
2013-11-25 04:23:00,31.4,16.7,30.36,ENE,77,4.5,6.9,54,0.00,OVC,,0.00,0.0,WeatherDisplay:10.37,2013-11-25 10:23:00,
2013-11-25 04:28:00,31.4,17.1,30.36,ENE,76,2.4,4.0,55,0.00,OVC,,0.00,0.0,WeatherDisplay:10.37,2013-11-25 10:28:00,
2013-11-25 04:33:00,31.4,17.5,30.36,East,88,4.8,8.1,56,0.00,OVC,,0.00,0.0,WeatherDisplay:10.37,2013-11-25 10:33:00,
2013-11-25 04:38:00,31.4,17.5,30.35,NE,55,3.1,3.5,56,0.00,OVC,,0.00,0.0,WeatherDisplay:10.37,2013-11-25 10:38:00,
2013-11-25 04:43:00,31.4,17.1,30.35,East,99,3.0,4.0,55,0.00,OVC,,0.00,0.0,WeatherDisplay:10.37,2013-11-25 10:43:00,
2013-11-25 04:48:00,31.4,17.1,30.35,NE,36,4.2,5.8,55,0.00,OVC,,0.00,0.0,WeatherDisplay:10.37,2013-11-25 10:48:00,
2013-11-25 04:53:00,31.4,17.1,30.35,NNE,20,3.6,6.9,55,0.00,OVC,,0.00,0.0,WeatherDisplay:10.37,2013-11-25 10:53:00,
2013-11-25 04:58:00,31.4,17.1,30.34,ENE,71,2.9,3.5,55,0.00,OVC,,0.00,0.0,WeatherDisplay:10.37,2013-11-25 10:58:00,
2013-11-25 05:03:00,31.3,17.4,30.34,East,94,1.5,3.5,56,0.00,OVC,,0.00,0.0,WeatherDisplay:10.37,2013-11-25 11:03:00,
2013-11-25 05:08:00,31.4,17.5,30.33,East,90,4.6,8.1,56,0.00,OVC,,0.00,0.0,WeatherDisplay:10.37,2013-11-25 11:08:00,
2013-11-25 05:13:00,31.3,17.4,30.32,ENE,65,3.7,6.9,56,0.00,OVC,,0.00,0.0,WeatherDisplay:10.37,2013-11-25 11:13:00,
2013-11-25 05:18:00,31.3,17.4,30.32,East,90,3.0,7.0,56,0.00,OVC,,0.00,0.0,WeatherDisplay:10.37,2013-11-25 11:18:00,
2013-11-25 05:23:00,31.3,17.4,30.33,ESE,119,5.7,10.4,56,0.00,OVC,,0.00,0.0,WeatherDisplay:10.37,2013-11-25 11:23:00,
2013-11-25 05:28:00,31.3,17.4,30.33,ENE,62,2.1,2.6,56,0.00,OVC,,0.00,0.0,WeatherDisplay:10.37,2013-11-25 11:28:00,
2013-11-25 05:33:00,31.3,17.4,30.32,NE,51,3.2,6.9,56,0.00,OVC,,0.00,0.0,WeatherDisplay:10.37,2013-11-25 11:33:00,
2013-11-25 05:38:00,31.4,17.5,30.32,ENE,67,7.4,9.2,56,0.00,OVC,,0.00,0.0,WeatherDisplay:10.37,2013-11-25 11:38:00,
2013-11-25 05:43:00,31.3,17.4,30.32,ESE,112,4.5,8.1,56,0.00,OVC,,0.00,0.0,WeatherDisplay:10.37,2013-11-25 11:43:00,
2013-11-25 05:48:00,31.3,17.0,30.33,East,101,4.0,8.1,55,0.00,OVC,,0.00,0.0,WeatherDisplay:10.37,2013-11-25 11:48:00,
2013-11-25 05:53:00,31.3,17.8,30.33,ESE,111,0.6,4.0,57,0.00,OVC,,0.00,0.0,WeatherDisplay:10.37,2013-11-25 11:53:00,
2013-11-25 05:58:00,31.3,17.0,30.33,ESE,106,4.2,8.1,55,0.00,OVC,,0.00,0.0,WeatherDisplay:10.37,2013-11-25 11:58:00,
2013-11-25 06:03:00,31.3,17.4,30.34,ESE,103,1.2,2.3,56,0.00,OVC,,0.00,0.0,WeatherDisplay:10.37,2013-11-25 12:03:00,
2013-11-25 06:08:00,31.3,17.0,30.35,SSE,153,0.4,1.2,55,0.00,OVC,,0.00,0.0,WeatherDisplay:10.37,2013-11-25 12:08:00,
2013-11-25 06:13:00,31.3,17.4,30.35,SSE,153,0.0,0.0,56,0.00,OVC,,0.00,0.0,WeatherDisplay:10.37,2013-11-25 12:13:00,
2013-11-25 06:18:00,31.2,18.9,30.35,East,101,1.8,2.3,60,0.00,OVC,,0.00,0.0,WeatherDisplay:10.37,2013-11-25 12:18:00,
2013-11-25 06:23:00,30.9,20.5,30.35,East,101,0.0,0.0,65,0.00,OVC,,0.00,0.0,WeatherDisplay:10.37,2013-11-25 12:23:00,
2013-11-25 06:28:00,30.7,22.1,30.36,East,101,0.0,0.0,70,0.01,RA,,0.01,0.0,WeatherDisplay:10.37,2013-11-25 12:28:00,
2013-11-25 06:33:00,30.5,21.9,30.37,East,101,0.0,0.0,70,0.01,RA,,0.01,0.0,WeatherDisplay:10.37,2013-11-25 12:33:00,
2013-11-25 06:38:00,30.4,21.4,30.36,East,101,0.0,0.0,69,0.01,OVC,,0.01,0.0,WeatherDisplay:10.37,2013-11-25 12:38:00,
2013-11-25 06:43:00,30.3,22.7,30.35,East,101,0.0,0.0,73,0.01,OVC,,0.01,0.0,WeatherDisplay:10.37,2013-11-25 12:43:00,
2013-11-25 06:48:00,30.3,23.6,30.35,East,101,0.0,0.0,76,0.01,OVC,,0.01,0.0,WeatherDisplay:10.37,2013-11-25 12:48:00,
2013-11-25 06:53:00,30.2,22.9,30.34,East,84,0.0,1.2,74,0.03,RA,,0.03,0.0,WeatherDisplay:10.37,2013-11-25 12:53:00,
2013-11-25 06:58:00,30.1,23.8,30.34,East,84,0.8,1.3,77,0.03,RA,,0.03,0.0,WeatherDisplay:10.37,2013-11-25 12:58:00,
2013-11-25 07:03:00,29.9,23.3,30.35,East,84,1.5,2.6,76,0.05,RA,,0.05,0.0,WeatherDisplay:10.37,2013-11-25 13:03:00,
2013-11-25 07:08:00,29.9,23.3,30.35,NE,47,3.9,5.8,76,0.05,RA,,0.05,0.0,WeatherDisplay:10.37,2013-11-25 13:08:00,
2013-11-25 07:13:00,29.8,23.8,30.34,ENE,58,0.3,3.5,78,0.06,RA,,0.06,0.0,WeatherDisplay:10.37,2013-11-25 13:13:00,
2013-11-25 07:18:00,29.7,23.7,30.35,ENE,59,0.7,2.3,78,0.07,RA,,0.07,0.0,WeatherDisplay:10.37,2013-11-25 13:18:00,
2013-11-25 07:23:00,29.7,24.0,30.35,NE,51,0.0,0.0,79,0.07,RA,,0.07,0.0,WeatherDisplay:10.37,2013-11-25 13:23:00,
2013-11-25 07:28:00,29.6,23.6,30.35,NNE,21,2.1,2.6,78,0.06,OVC,,0.07,0.0,WeatherDisplay:10.37,2013-11-25 13:28:00,
2013-11-25 07:33:00,29.5,23.5,30.35,NNE,21,0.8,2.3,78,0.06,OVC,,0.07,5.0,WeatherDisplay:10.37,2013-11-25 13:33:00,
2013-11-25 07:38:00,29.5,24.1,30.35,ENE,62,1.5,2.6,80,0.06,OVC,,0.07,7.0,WeatherDisplay:10.37,2013-11-25 13:38:00,
2013-11-25 07:43:00,29.6,24.8,30.34,East,88,2.1,2.3,82,0.07,RA,,0.08,7.0,WeatherDisplay:10.37,2013-11-25 13:43:00,
2013-11-25 07:48:00,29.6,24.8,30.35,East,91,0.9,1.2,82,0.07,RA,,0.08,9.0,WeatherDisplay:10.37,2013-11-25 13:48:00,
2013-11-25 07:53:00,29.5,25.0,30.33,ESE,102,6.2,9.2,83,0.05,OVC,,0.08,11.0,WeatherDisplay:10.37,2013-11-25 13:53:00,
2013-11-25 07:58:00,29.6,25.1,30.34,SE,128,0.0,2.3,83,0.05,OVC,,0.08,12.0,WeatherDisplay:10.37,2013-11-25 13:58:00,
2013-11-25 08:03:00,29.5,25.0,30.34,ENE,76,2.3,4.0,83,0.03,OVC,,0.08,16.0,WeatherDisplay:10.37,2013-11-25 14:03:00,
2013-11-25 08:08:00,29.4,24.9,30.34,NE,47,1.0,2.3,83,0.03,OVC,,0.08,16.0,WeatherDisplay:10.37,2013-11-25 14:08:00,
2013-11-25 08:13:00,29.4,25.2,30.34,NE,49,0.9,2.3,84,0.02,OVC,,0.08,16.0,WeatherDisplay:10.37,2013-11-25 14:13:00,
2013-11-25 08:18:00,29.4,25.2,30.33,NE,46,0.7,1.2,84,0.01,OVC,,0.08,19.0,WeatherDisplay:10.37,2013-11-25 14:18:00,
2013-11-25 08:23:00,29.4,25.2,30.33,East,90,2.1,3.5,84,0.01,OVC,,0.08,16.0,WeatherDisplay:10.37,2013-11-25 14:23:00,
2013-11-25 08:28:00,29.4,24.9,30.34,SE,130,1.2,3.5,83,0.01,OVC,,0.08,19.0,WeatherDisplay:10.37,2013-11-25 14:28:00,
2013-11-25 08:33:00,29.5,25.0,30.34,East,100,2.3,3.5,83,0.01,OVC,,0.08,19.0,WeatherDisplay:10.37,2013-11-25 14:33:00,
2013-11-25 08:38:00,29.6,25.4,30.34,ENE,69,2.8,3.5,84,0.01,OVC,,0.08,19.0,WeatherDisplay:10.37,2013-11-25 14:38:00,
2013-11-25 08:43:00,29.6,25.4,30.34,ENE,76,3.6,3.6,84,0.00,OVC,,0.08,18.0,WeatherDisplay:10.37,2013-11-25 14:43:00,
2013-11-25 08:48:00,29.7,25.5,30.33,ENE,69,2.2,3.5,84,0.00,OVC,,0.08,21.0,WeatherDisplay:10.37,2013-11-25 14:48:00,
2013-11-25 08:53:00,29.6,25.1,30.35,NE,37,1.3,3.5,83,0.00,OVC,,0.08,25.0,WeatherDisplay:10.37,2013-11-25 14:53:00,
2013-11-25 08:58:00,29.7,24.9,30.35,ESE,117,0.5,2.3,82,0.00,OVC,,0.08,23.0,WeatherDisplay:10.37,2013-11-25 14:58:00,
2013-11-25 09:03:00,29.7,24.9,30.36,ESE,117,0.0,0.0,82,0.00,OVC,,0.08,23.0,WeatherDisplay:10.37,2013-11-25 15:03:00,
2013-11-25 09:08:00,29.7,24.9,30.36,ESE,117,2.2,2.3,82,0.00,OVC,,0.08,25.0,WeatherDisplay:10.37,2013-11-25 15:08:00,
2013-11-25 09:13:00,29.8,25.3,30.35,ESE,108,0.8,2.6,83,0.00,OVC,,0.08,23.0,WeatherDisplay:10.37,2013-11-25 15:13:00,
2013-11-25 09:18:00,29.8,25.3,30.34,ESE,110,0.2,2.3,83,0.00,OVC,,0.08,37.0,WeatherDisplay:10.37,2013-11-25 15:18:00,
2013-11-25 09:23:00,29.8,25.3,30.35,ESE,109,1.0,2.6,83,0.00,OVC,,0.08,33.0,WeatherDisplay:10.37,2013-11-25 15:23:00,
2013-11-25 09:28:00,29.9,25.7,30.33,NE,54,3.1,3.5,84,0.00,OVC,,0.08,51.0,WeatherDisplay:10.37,2013-11-25 15:28:00,
2013-11-25 09:33:00,29.9,25.7,30.34,ENE,59,0.0,0.0,84,0.00,OVC,,0.08,28.0,WeatherDisplay:10.37,2013-11-25 15:33:00,
2013-11-25 09:38:00,30.0,26.0,30.32,East,85,0.6,2.3,85,0.00,OVC,,0.08,42.0,WeatherDisplay:10.37,2013-11-25 15:38:00,
2013-11-25 09:43:00,30.0,26.3,30.32,NE,35,3.7,3.7,86,0.00,OVC,,0.08,54.0,WeatherDisplay:10.37,2013-11-25 15:43:00,
2013-11-25 09:48:00,29.9,25.9,30.32,NE,37,1.9,3.5,85,0.00,OVC,,0.08,69.0,WeatherDisplay:10.37,2013-11-25 15:48:00,
2013-11-25 09:53:00,29.9,25.9,30.31,ENE,59,2.9,4.0,85,0.00,OVC,,0.08,63.0,WeatherDisplay:10.37,2013-11-25 15:53:00,
2013-11-25 09:58:00,29.9,25.9,30.32,NNE,15,0.5,1.3,85,0.00,OVC,,0.08,62.0,WeatherDisplay:10.37,2013-11-25 15:58:00,
2013-11-25 10:03:00,29.9,25.9,30.35,NNW,332,1.1,3.5,85,0.00,OVC,,0.08,23.0,WeatherDisplay:10.37,2013-11-25 16:03:00,
2013-11-25 10:08:00,30.0,25.8,30.34,North,5,0.5,1.2,84,0.00,OVC,,0.08,26.0,WeatherDisplay:10.37,2013-11-25 16:08:00,
2013-11-25 10:13:00,30.0,26.0,30.33,ENE,68,2.4,2.4,85,0.00,OVC,,0.08,32.0,WeatherDisplay:10.37,2013-11-25 16:13:00,
2013-11-25 10:18:00,30.0,26.0,30.32,NNE,15,1.3,5.8,85,0.00,OVC,,0.08,40.0,WeatherDisplay:10.37,2013-11-25 16:18:00,
2013-11-25 10:23:00,30.1,26.1,30.33,East,84,0.0,1.2,85,0.00,OVC,,0.08,39.0,WeatherDisplay:10.37,2013-11-25 16:23:00,
2013-11-25 10:28:00,30.2,26.2,30.33,East,83,2.1,2.3,85,0.00,OVC,,0.08,47.0,WeatherDisplay:10.37,2013-11-25 16:28:00,
2013-11-25 10:33:00,30.3,26.6,30.33,NNE,19,1.5,4.0,86,0.00,OVC,,0.08,56.0,WeatherDisplay:10.37,2013-11-25 16:33:00,
2013-11-25 10:38:00,30.4,26.4,30.33,NNE,12,2.6,4.0,85,0.00,OVC,,0.08,69.0,WeatherDisplay:10.37,2013-11-25 16:38:00,
2013-11-25 10:43:00,30.6,26.9,30.32,NNE,13,0.5,2.3,86,0.00,OVC,,0.08,79.0,WeatherDisplay:10.37,2013-11-25 16:43:00,
2013-11-25 10:48:00,30.7,27.0,30.32,East,98,1.2,2.3,86,0.00,OVC,,0.08,113.0,WeatherDisplay:10.37,2013-11-25 16:48:00,
2013-11-25 10:53:00,30.9,27.2,30.32,East,98,0.0,1.2,86,0.00,OVC,,0.08,109.0,WeatherDisplay:10.37,2013-11-25 16:53:00,
2013-11-25 10:58:00,31.0,27.0,30.32,ENE,65,0.8,1.3,85,0.00,OVC,,0.08,86.0,WeatherDisplay:10.37,2013-11-25 16:58:00,
2013-11-25 11:03:00,30.8,26.8,30.32,East,97,3.2,3.5,85,0.00,OVC,,0.08,74.0,WeatherDisplay:10.37,2013-11-25 17:03:00,
2013-11-25 11:08:00,30.9,26.9,30.31,East,85,1.1,1.2,85,0.00,OVC,,0.08,142.0,WeatherDisplay:10.37,2013-11-25 17:08:00,
2013-11-25 11:13:00,30.9,26.9,30.31,East,82,2.3,6.9,85,0.00,OVC,,0.08,155.0,WeatherDisplay:10.37,2013-11-25 17:13:00,
2013-11-25 11:18:00,31.1,27.4,30.30,East,82,2.6,2.6,86,0.00,OVC,,0.08,169.0,WeatherDisplay:10.37,2013-11-25 17:18:00,
2013-11-25 11:23:00,31.4,27.7,30.30,NNE,19,3.3,5.8,86,0.00,OVC,,0.08,359.0,WeatherDisplay:10.37,2013-11-25 17:23:00,
2013-11-25 11:28:00,32.0,28.3,30.30,East,82,3.9,5.8,86,0.00,OVC,,0.09,248.0,WeatherDisplay:10.37,2013-11-25 17:28:00,
2013-11-25 11:33:00,31.9,27.9,30.29,North,355,2.9,4.0,85,0.01,RA,,0.09,204.0,WeatherDisplay:10.37,2013-11-25 17:33:00,
2013-11-25 11:38:00,31.9,27.9,30.29,ESE,103,3.2,3.5,85,0.01,RA,,0.09,153.0,WeatherDisplay:10.37,2013-11-25 17:38:00,
2013-11-25 11:43:00,31.8,27.8,30.29,ENE,67,2.4,2.6,85,0.01,OVC,,0.09,118.0,WeatherDisplay:10.37,2013-11-25 17:43:00,
2013-11-25 11:48:00,31.7,27.7,30.29,East,81,1.1,2.3,85,0.01,OVC,,0.09,116.0,WeatherDisplay:10.37,2013-11-25 17:48:00,
2013-11-25 11:53:00,32.0,28.3,30.29,East,90,1.9,2.3,86,0.01,OVC,,0.09,134.0,WeatherDisplay:10.37,2013-11-25 17:53:00,
2013-11-25 11:58:00,31.7,27.4,30.29,ESE,121,2.2,5.3,84,0.01,OVC,,0.09,114.0,WeatherDisplay:10.37,2013-11-25 17:58:00,
2013-11-25 12:03:00,31.8,27.8,30.28,ESE,121,3.6,6.6,85,0.01,OVC,,0.09,109.0,WeatherDisplay:10.37,2013-11-25 18:03:00,
2013-11-25 12:08:00,31.8,27.8,30.28,ENE,64,3.2,5.8,85,0.01,OVC,,0.09,148.0,WeatherDisplay:10.37,2013-11-25 18:08:00,
2013-11-25 12:13:00,31.7,27.4,30.29,ESE,107,0.0,1.2,84,0.01,OVC,,0.09,105.0,WeatherDisplay:10.37,2013-11-25 18:13:00,
2013-11-25 12:18:00,31.8,27.8,30.29,ESE,104,2.2,3.5,85,0.01,OVC,,0.09,77.0,WeatherDisplay:10.37,2013-11-25 18:18:00,
2013-11-25 12:23:00,31.6,27.3,30.29,ESE,111,3.1,3.5,84,0.01,OVC,,0.09,77.0,WeatherDisplay:10.37,2013-11-25 18:23:00,
2013-11-25 12:28:00,31.6,27.6,30.28,East,95,0.0,1.2,85,0.02,RA,,0.10,91.0,WeatherDisplay:10.37,2013-11-25 18:28:00,
2013-11-25 12:33:00,31.7,27.7,30.28,ESE,117,1.9,4.0,85,0.01,RA,,0.10,83.0,WeatherDisplay:10.37,2013-11-25 18:33:00,
2013-11-25 12:38:00,31.6,27.0,30.28,East,87,2.8,2.8,83,0.01,OVC,,0.10,100.0,WeatherDisplay:10.37,2013-11-25 18:38:00,
2013-11-25 12:43:00,31.7,27.4,30.27,East,87,0.0,0.0,84,0.01,OVC,,0.10,125.0,WeatherDisplay:10.37,2013-11-25 18:43:00,
2013-11-25 12:48:00,32.0,27.7,30.27,East,87,0.0,2.3,84,0.01,OVC,,0.10,153.0,WeatherDisplay:10.37,2013-11-25 18:48:00,
2013-11-25 12:53:00,32.4,28.4,30.26,NNE,31,2.2,5.8,85,0.01,OVC,,0.10,241.0,WeatherDisplay:10.37,2013-11-25 18:53:00,
2013-11-25 12:58:00,32.8,28.8,30.25,NE,53,2.2,4.0,85,0.01,OVC,,0.10,292.0,WeatherDisplay:10.37,2013-11-25 18:58:00,
2013-11-25 13:03:00,32.9,28.9,30.23,East,101,4.0,4.0,85,0.02,RA,,0.11,343.0,WeatherDisplay:10.37,2013-11-25 19:03:00,
2013-11-25 13:08:00,32.9,28.6,30.24,East,82,3.0,4.0,84,0.02,RA,,0.11,174.0,WeatherDisplay:10.37,2013-11-25 19:08:00,
2013-11-25 13:13:00,32.9,28.9,30.23,NE,53,0.7,2.3,85,0.02,OVC,,0.11,172.0,WeatherDisplay:10.37,2013-11-25 19:13:00,
2013-11-25 13:18:00,32.9,28.6,30.22,NE,51,1.7,2.3,84,0.02,OVC,,0.11,178.0,WeatherDisplay:10.37,2013-11-25 19:18:00,
2013-11-25 13:23:00,32.8,28.2,30.22,ENE,71,2.8,3.5,83,0.02,OVC,,0.11,153.0,WeatherDisplay:10.37,2013-11-25 19:23:00,
2013-11-25 13:28:00,33.0,28.7,30.22,East,101,3.0,5.8,84,0.01,OVC,,0.11,118.0,WeatherDisplay:10.37,2013-11-25 19:28:00,
2013-11-25 13:33:00,32.9,28.6,30.23,East,81,1.4,2.6,84,0.01,OVC,,0.11,104.0,WeatherDisplay:10.37,2013-11-25 19:33:00,
2013-11-25 13:38:00,32.8,28.5,30.23,NE,53,0.8,2.3,84,0.01,OVC,,0.11,91.0,WeatherDisplay:10.37,2013-11-25 19:38:00,
2013-11-25 13:43:00,32.9,28.6,30.23,NE,38,1.4,4.0,84,0.01,OVC,,0.11,91.0,WeatherDisplay:10.37,2013-11-25 19:43:00,
2013-11-25 13:48:00,32.7,27.8,30.23,NE,38,0.0,1.2,82,0.01,OVC,,0.11,79.0,WeatherDisplay:10.37,2013-11-25 19:48:00,
2013-11-25 13:53:00,32.9,28.3,30.23,NE,38,0.0,0.0,83,0.01,OVC,,0.11,86.0,WeatherDisplay:10.37,2013-11-25 19:53:00,
2013-11-25 13:58:00,32.8,27.9,30.23,NE,38,0.0,0.0,82,0.01,OVC,,0.11,109.0,WeatherDisplay:10.37,2013-11-25 19:58:00,
2013-11-25 14:03:00,32.9,28.0,30.23,NE,38,0.0,0.0,82,0.00,OVC,,0.11,76.0,WeatherDisplay:10.37,2013-11-25 20:03:00,
2013-11-25 14:08:00,32.9,28.0,30.23,NE,44,0.6,0.0,82,0.00,OVC,,0.11,69.0,WeatherDisplay:10.37,2013-11-25 20:08:00,
2013-11-25 14:13:00,33.1,28.5,30.23,ENE,58,0.2,1.3,83,0.00,OVC,,0.11,91.0,WeatherDisplay:10.37,2013-11-25 20:13:00,
2013-11-25 14:18:00,33.1,28.8,30.23,East,84,0.0,0.0,84,0.00,OVC,,0.11,114.0,WeatherDisplay:10.37,2013-11-25 20:18:00,
2013-11-25 14:23:00,33.1,28.8,30.23,South,179,0.7,2.3,84,0.00,OVC,,0.11,97.0,WeatherDisplay:10.37,2013-11-25 20:23:00,
2013-11-25 14:28:00,33.1,28.5,30.24,South,184,1.2,2.3,83,0.00,OVC,,0.11,53.0,WeatherDisplay:10.37,2013-11-25 20:28:00,
2013-11-25 14:33:00,33.1,28.8,30.23,South,184,0.0,1.2,84,0.00,OVC,,0.11,98.0,WeatherDisplay:10.37,2013-11-25 20:33:00,
2013-11-25 14:38:00,33.0,28.4,30.24,SW,222,2.3,2.6,83,0.00,OVC,,0.11,47.0,WeatherDisplay:10.37,2013-11-25 20:38:00,
2013-11-25 14:43:00,33.0,28.7,30.24,SW,222,0.0,1.2,84,0.00,OVC,,0.11,39.0,WeatherDisplay:10.37,2013-11-25 20:43:00,
2013-11-25 14:48:00,33.0,28.7,30.23,SW,222,0.0,0.0,84,0.00,OVC,,0.11,47.0,WeatherDisplay:10.37,2013-11-25 20:48:00,
2013-11-25 14:53:00,33.1,28.8,30.21,East,91,1.3,2.3,84,0.00,OVC,,0.11,86.0,WeatherDisplay:10.37,2013-11-25 20:53:00,
2013-11-25 14:58:00,33.1,28.8,30.21,East,84,0.6,2.3,84,0.00,OVC,,0.11,84.0,WeatherDisplay:10.37,2013-11-25 20:58:00,
2013-11-25 15:03:00,33.2,28.9,30.21,East,84,0.0,0.0,84,0.00,OVC,,0.11,81.0,WeatherDisplay:10.37,2013-11-25 21:03:00,
2013-11-25 15:09:00,33.1,28.8,30.22,East,84,0.0,0.0,84,0.00,OVC,,0.11,113.0,WeatherDisplay:10.37,2013-11-25 21:09:00,
2013-11-25 15:14:00,33.2,28.9,30.22,East,84,0.0,0.0,84,0.00,OVC,,0.11,69.0,WeatherDisplay:10.37,2013-11-25 21:14:00,
2013-11-25 15:19:00,33.3,29.3,30.23,SE,145,2.0,2.3,85,0.00,OVC,,0.11,42.0,WeatherDisplay:10.37,2013-11-25 21:19:00,
2013-11-25 15:24:00,33.2,29.2,30.23,SSE,159,2.0,3.5,85,0.00,OVC,,0.11,32.0,WeatherDisplay:10.37,2013-11-25 21:24:00,
2013-11-25 15:29:00,33.3,29.6,30.23,SSE,159,0.1,1.2,86,0.00,OVC,,0.11,42.0,WeatherDisplay:10.37,2013-11-25 21:29:00,
2013-11-25 15:34:00,33.2,29.2,30.23,SSE,159,0.0,1.2,85,0.00,OVC,,0.11,49.0,WeatherDisplay:10.37,2013-11-25 21:34:00,
2013-11-25 15:39:00,33.2,29.5,30.23,SSE,159,0.6,1.3,86,0.00,OVC,,0.11,39.0,WeatherDisplay:10.37,2013-11-25 21:39:00,
2013-11-25 15:44:00,33.3,29.6,30.21,SSE,159,0.3,1.2,86,0.00,OVC,,0.11,53.0,WeatherDisplay:10.37,2013-11-25 21:44:00,
2013-11-25 15:49:00,33.2,29.2,30.24,SSE,159,0.0,0.0,85,0.00,OVC,,0.11,23.0,WeatherDisplay:10.37,2013-11-25 21:49:00,
2013-11-25 15:54:00,33.2,29.2,30.23,SSE,159,0.0,0.0,85,0.00,OVC,,0.11,33.0,WeatherDisplay:10.37,2013-11-25 21:54:00,
2013-11-25 15:59:00,33.1,29.1,30.23,SSE,159,0.0,0.0,85,0.00,OVC,,0.11,33.0,WeatherDisplay:10.37,2013-11-25 21:59:00,
2013-11-25 16:04:00,33.2,29.2,30.23,SSE,159,0.0,0.0,85,0.00,OVC,,0.11,47.0,WeatherDisplay:10.37,2013-11-25 22:04:00,
2013-11-25 16:09:00,33.1,28.8,30.23,SSE,159,0.4,1.2,84,0.00,OVC,,0.11,77.0,WeatherDisplay:10.37,2013-11-25 22:09:00,
2013-11-25 16:14:00,33.2,29.2,30.23,SSE,159,0.0,0.0,85,0.00,OVC,,0.11,21.0,WeatherDisplay:10.37,2013-11-25 22:14:00,
2013-11-25 16:19:00,33.3,29.3,30.23,SSE,159,0.0,0.0,85,0.00,OVC,,0.11,21.0,WeatherDisplay:10.37,2013-11-25 22:19:00,
2013-11-25 16:24:00,33.4,29.4,30.23,SSE,159,0.3,1.3,85,0.00,OVC,,0.11,25.0,WeatherDisplay:10.37,2013-11-25 22:24:00,
2013-11-25 16:29:00,33.3,29.3,30.22,SSE,159,0.0,0.0,85,0.00,OVC,,0.11,26.0,WeatherDisplay:10.37,2013-11-25 22:29:00,
2013-11-25 16:34:00,33.3,29.3,30.22,SSE,159,0.0,0.0,85,0.00,OVC,,0.11,40.0,WeatherDisplay:10.37,2013-11-25 22:34:00,
2013-11-25 16:39:00,33.2,29.2,30.22,SSE,159,0.0,0.0,85,0.00,OVC,,0.11,28.0,WeatherDisplay:10.37,2013-11-25 22:39:00,
2013-11-25 16:44:00,33.3,29.6,30.21,SSE,159,0.0,0.0,86,0.00,OVC,,0.11,12.0,WeatherDisplay:10.37,2013-11-25 22:44:00,
2013-11-25 16:49:00,33.3,29.6,30.22,SSE,159,0.0,0.0,86,0.00,OVC,,0.11,5.0,WeatherDisplay:10.37,2013-11-25 22:49:00,
2013-11-25 16:54:00,33.2,29.5,30.22,SSE,159,0.0,0.0,86,0.00,OVC,,0.11,0.0,WeatherDisplay:10.37,2013-11-25 22:54:00,
2013-11-25 16:59:00,33.2,29.5,30.22,SSE,159,0.0,0.0,86,0.00,OVC,,0.11,0.0,WeatherDisplay:10.37,2013-11-25 22:59:00,
2013-11-25 17:04:00,33.2,29.5,30.22,SSE,159,0.0,0.0,86,0.00,OVC,,0.11,0.0,WeatherDisplay:10.37,2013-11-25 23:04:00,
2013-11-25 17:09:00,33.2,29.5,30.22,SSE,159,0.0,0.0,86,0.00,OVC,,0.11,0.0,WeatherDisplay:10.37,2013-11-25 23:09:00,
2013-11-25 17:14:00,33.2,29.8,30.22,SSE,159,0.0,0.0,87,0.00,OVC,,0.11,0.0,WeatherDisplay:10.37,2013-11-25 23:14:00,
2013-11-25 17:19:00,33.2,29.8,30.21,SSE,159,0.0,0.0,87,0.00,OVC,,0.11,0.0,WeatherDisplay:10.37,2013-11-25 23:19:00,
2013-11-25 17:24:00,33.1,29.7,30.21,SSE,159,0.0,0.0,87,0.00,OVC,,0.11,0.0,WeatherDisplay:10.37,2013-11-25 23:24:00,
2013-11-25 17:29:00,33.2,29.8,30.20,SSE,159,0.0,0.0,87,0.00,OVC,,0.11,0.0,WeatherDisplay:10.37,2013-11-25 23:29:00,
2013-11-25 17:34:00,33.2,30.0,30.20,SSE,159,0.0,0.0,88,0.00,OVC,,0.11,0.0,WeatherDisplay:10.37,2013-11-25 23:34:00,
2013-11-25 17:39:00,33.2,30.0,30.20,SSW,196,1.0,2.3,88,0.00,OVC,,0.11,0.0,WeatherDisplay:10.37,2013-11-25 23:39:00,
2013-11-25 17:44:00,33.2,30.0,30.19,WNW,297,0.8,1.3,88,0.00,OVC,,0.11,0.0,WeatherDisplay:10.37,2013-11-25 23:44:00,
2013-11-25 17:49:00,33.2,30.0,30.19,WNW,297,0.0,0.0,88,0.00,OVC,,0.11,0.0,WeatherDisplay:10.37,2013-11-25 23:49:00,
2013-11-25 17:54:00,33.2,30.0,30.19,WNW,297,1.0,1.2,88,0.00,OVC,,0.11,0.0,WeatherDisplay:10.37,2013-11-25 23:54:00,
2013-11-25 17:59:00,33.2,30.0,30.18,WNW,297,0.2,0.0,88,0.00,OVC,,0.11,0.0,WeatherDisplay:10.37,2013-11-25 23:59:00,
2013-11-25 18:04:00,33.2,30.0,30.18,WNW,297,0.0,0.0,88,0.00,OVC,,0.11,0.0,WeatherDisplay:10.37,2013-11-26 00:04:00,
2013-11-25 18:09:00,33.1,29.9,30.20,West,276,2.9,3.5,88,0.00,OVC,,0.11,0.0,WeatherDisplay:10.37,2013-11-26 00:09:00,
2013-11-25 18:14:00,33.2,30.0,30.19,West,276,0.0,0.0,88,0.00,OVC,,0.11,0.0,WeatherDisplay:10.37,2013-11-26 00:14:00,
2013-11-25 18:19:00,33.2,30.0,30.18,West,276,0.0,0.0,88,0.00,OVC,,0.11,0.0,WeatherDisplay:10.37,2013-11-26 00:19:00,
2013-11-25 18:24:00,33.1,29.9,30.18,West,276,0.0,0.0,88,0.00,OVC,,0.11,0.0,WeatherDisplay:10.37,2013-11-26 00:24:00,
2013-11-25 18:29:00,33.2,30.0,30.19,West,276,0.0,0.0,88,0.00,OVC,,0.11,0.0,WeatherDisplay:10.37,2013-11-26 00:29:00,
2013-11-25 18:34:00,33.3,30.4,30.20,West,261,0.1,1.3,89,0.00,OVC,,0.11,0.0,WeatherDisplay:10.37,2013-11-26 00:34:00,
2013-11-25 18:39:00,33.3,30.4,30.19,South,191,1.0,2.3,89,0.00,OVC,,0.11,0.0,WeatherDisplay:10.37,2013-11-26 00:39:00,
2013-11-25 18:44:00,33.3,30.4,30.18,South,191,0.0,0.0,89,0.00,OVC,,0.11,0.0,WeatherDisplay:10.37,2013-11-26 00:44:00,
2013-11-25 18:49:00,33.3,30.4,30.20,South,191,1.4,2.6,89,0.00,OVC,,0.11,0.0,WeatherDisplay:10.37,2013-11-26 00:49:00,
2013-11-25 18:54:00,33.3,30.4,30.20,SSW,200,2.2,2.3,89,0.00,OVC,,0.11,0.0,WeatherDisplay:10.37,2013-11-26 00:54:00,
2013-11-25 18:59:00,33.4,30.5,30.21,SSW,207,2.2,3.5,89,0.00,OVC,,0.11,0.0,WeatherDisplay:10.37,2013-11-26 00:59:00,
2013-11-25 19:04:00,33.4,30.5,30.20,SSW,207,0.8,1.2,89,0.00,OVC,,0.11,0.0,WeatherDisplay:10.37,2013-11-26 01:04:00,
2013-11-25 19:09:00,33.4,30.5,30.22,SSW,207,1.5,3.5,89,0.00,OVC,,0.11,0.0,WeatherDisplay:10.37,2013-11-26 01:09:00,
2013-11-25 19:14:00,33.5,30.6,30.20,SSW,206,0.1,1.2,89,0.00,OVC,,0.11,0.0,WeatherDisplay:10.37,2013-11-26 01:14:00,
2013-11-25 19:19:00,33.5,30.6,30.20,SSW,206,2.0,2.6,89,0.00,OVC,,0.11,0.0,WeatherDisplay:10.37,2013-11-26 01:19:00,
2013-11-25 19:24:00,33.5,30.6,30.20,SSW,206,0.2,1.2,89,0.00,OVC,,0.11,0.0,WeatherDisplay:10.37,2013-11-26 01:24:00,
2013-11-25 19:29:00,33.5,30.6,30.20,SSW,206,0.1,1.3,89,0.00,OVC,,0.11,0.0,WeatherDisplay:10.37,2013-11-26 01:29:00,
2013-11-25 19:34:00,33.5,30.6,30.21,SSW,206,0.3,1.3,89,0.00,OVC,,0.11,0.0,WeatherDisplay:10.37,2013-11-26 01:34:00,
2013-11-25 19:39:00,33.4,30.5,30.20,SW,225,0.0,0.0,89,0.00,OVC,,0.11,0.0,WeatherDisplay:10.37,2013-11-26 01:39:00,
2013-11-25 19:44:00,33.5,30.6,30.19,NNE,22,1.8,2.6,89,0.00,OVC,,0.11,0.0,WeatherDisplay:10.37,2013-11-26 01:44:00,
2013-11-25 19:49:00,33.5,30.9,30.20,NNE,22,0.0,0.0,90,0.00,OVC,,0.11,0.0,WeatherDisplay:10.37,2013-11-26 01:49:00,
2013-11-25 19:54:00,33.4,30.8,30.19,NNE,22,0.0,0.0,90,0.00,OVC,,0.11,0.0,WeatherDisplay:10.37,2013-11-26 01:54:00,
2013-11-25 19:59:00,33.5,30.9,30.18,NNE,22,0.0,0.0,90,0.00,OVC,,0.11,0.0,WeatherDisplay:10.37,2013-11-26 01:59:00,
2013-11-25 20:04:00,33.5,30.9,30.18,NNE,22,0.0,0.0,90,0.00,OVC,,0.11,0.0,WeatherDisplay:10.37,2013-11-26 02:04:00,
2013-11-25 20:09:00,33.5,30.9,30.19,NNE,22,0.0,0.0,90,0.00,OVC,,0.11,0.0,WeatherDisplay:10.37,2013-11-26 02:09:00,
2013-11-25 20:14:00,33.5,30.9,30.20,NNE,22,0.0,0.0,90,0.00,OVC,,0.11,0.0,WeatherDisplay:10.37,2013-11-26 02:14:00,
2013-11-25 20:19:00,33.6,31.0,30.21,West,259,0.6,2.6,90,0.00,OVC,,0.11,0.0,WeatherDisplay:10.37,2013-11-26 02:19:00,
2013-11-25 20:24:00,33.6,31.0,30.21,WSW,258,0.0,0.0,90,0.00,OVC,,0.11,0.0,WeatherDisplay:10.37,2013-11-26 02:24:00,
2013-11-25 20:29:00,33.6,31.0,30.21,West,259,0.6,2.3,90,0.00,OVC,,0.11,0.0,WeatherDisplay:10.37,2013-11-26 02:29:00,
2013-11-25 20:34:00,33.6,31.0,30.21,West,261,1.9,3.5,90,0.00,OVC,,0.11,0.0,WeatherDisplay:10.37,2013-11-26 02:34:00,
2013-11-25 20:39:00,33.6,31.0,30.20,NW,325,1.5,2.3,90,0.00,OVC,,0.11,0.0,WeatherDisplay:10.37,2013-11-26 02:39:00,
2013-11-25 20:44:00,33.7,31.1,30.19,NW,325,1.5,2.3,90,0.00,OVC,,0.11,0.0,WeatherDisplay:10.37,2013-11-26 02:44:00,
2013-11-25 20:49:00,33.8,31.2,30.21,NW,304,0.0,0.0,90,0.00,OVC,,0.11,0.0,WeatherDisplay:10.37,2013-11-26 02:49:00,
2013-11-25 20:54:00,33.8,31.2,30.21,NW,304,0.2,1.2,90,0.00,OVC,,0.11,0.0,WeatherDisplay:10.37,2013-11-26 02:54:00,
2013-11-25 20:59:00,33.8,31.2,30.21,WNW,286,0.8,1.2,90,0.00,OVC,,0.11,0.0,WeatherDisplay:10.37,2013-11-26 02:59:00,
2013-11-25 21:04:00,33.8,31.2,30.21,WSW,246,0.0,1.2,90,0.00,OVC,,0.11,0.0,WeatherDisplay:10.37,2013-11-26 03:04:00,
2013-11-25 21:09:00,33.9,31.3,30.21,SSW,209,0.0,0.0,90,0.00,OVC,,0.11,0.0,WeatherDisplay:10.37,2013-11-26 03:09:00,
2013-11-25 21:14:00,33.8,31.2,30.20,SSW,207,0.0,0.0,90,0.00,OVC,,0.11,0.0,WeatherDisplay:10.37,2013-11-26 03:14:00,
2013-11-25 21:19:00,33.8,31.2,30.21,SSW,207,0.0,0.0,90,0.00,OVC,,0.11,0.0,WeatherDisplay:10.37,2013-11-26 03:19:00,
2013-11-25 21:24:00,33.8,31.2,30.21,SSW,207,0.0,0.0,90,0.00,OVC,,0.11,0.0,WeatherDisplay:10.37,2013-11-26 03:24:00,
2013-11-25 21:29:00,33.9,31.3,30.22,SSW,207,0.0,0.0,90,0.00,OVC,,0.11,0.0,WeatherDisplay:10.37,2013-11-26 03:29:00,
2013-11-25 21:34:00,33.9,31.3,30.21,SSW,207,0.0,0.0,90,0.00,OVC,,0.11,0.0,WeatherDisplay:10.37,2013-11-26 03:34:00,
2013-11-25 21:39:00,33.9,31.3,30.21,SSW,207,0.0,0.0,90,0.00,OVC,,0.11,0.0,WeatherDisplay:10.37,2013-11-26 03:39:00,
2013-11-25 21:44:00,34.0,31.4,30.21,SSW,207,0.0,0.0,90,0.00,OVC,,0.11,0.0,WeatherDisplay:10.37,2013-11-26 03:44:00,
2013-11-25 21:49:00,34.0,31.4,30.20,SSW,207,0.0,0.0,90,0.00,OVC,,0.11,0.0,WeatherDisplay:10.37,2013-11-26 03:49:00,
2013-11-25 21:54:00,34.0,31.4,30.20,SSW,207,0.0,0.0,90,0.00,OVC,,0.11,0.0,WeatherDisplay:10.37,2013-11-26 03:54:00,
2013-11-25 21:59:00,34.0,31.4,30.19,SSW,207,0.0,0.0,90,0.00,OVC,,0.11,0.0,WeatherDisplay:10.37,2013-11-26 03:59:00,
2013-11-25 22:04:00,34.0,31.4,30.19,SSW,207,0.0,0.0,90,0.00,OVC,,0.11,0.0,WeatherDisplay:10.37,2013-11-26 04:04:00,
2013-11-25 22:09:00,34.0,31.4,30.19,SSW,207,0.0,0.0,90,0.00,OVC,,0.11,0.0,WeatherDisplay:10.37,2013-11-26 04:09:00,
2013-11-25 22:14:00,33.9,31.3,30.20,SSW,207,0.0,0.0,90,0.00,OVC,,0.11,0.0,WeatherDisplay:10.37,2013-11-26 04:14:00,
2013-11-25 22:19:00,33.9,31.3,30.20,SSW,207,0.0,0.0,90,0.00,OVC,,0.11,0.0,WeatherDisplay:10.37,2013-11-26 04:19:00,
2013-11-25 22:24:00,33.9,31.3,30.19,SSW,207,0.0,0.0,90,0.00,OVC,,0.11,0.0,WeatherDisplay:10.37,2013-11-26 04:24:00,
2013-11-25 22:29:00,34.0,31.4,30.19,SSW,207,0.0,0.0,90,0.00,OVC,,0.11,0.0,WeatherDisplay:10.37,2013-11-26 04:29:00,
2013-11-25 22:34:00,34.1,31.5,30.19,SSW,207,0.0,0.0,90,0.00,OVC,,0.11,0.0,WeatherDisplay:10.37,2013-11-26 04:34:00,
2013-11-25 22:39:00,34.1,31.5,30.19,SSW,207,0.0,0.0,90,0.00,OVC,,0.11,0.0,WeatherDisplay:10.37,2013-11-26 04:39:00,
2013-11-25 22:44:00,34.1,31.5,30.20,SSW,207,0.0,0.0,90,0.00,OVC,,0.11,0.0,WeatherDisplay:10.37,2013-11-26 04:44:00,
2013-11-25 22:49:00,34.1,31.5,30.19,WNW,295,2.3,3.5,90,0.00,OVC,,0.11,0.0,WeatherDisplay:10.37,2013-11-26 04:49:00,
2013-11-25 22:54:00,34.0,31.4,30.19,WNW,295,0.0,0.0,90,0.00,OVC,,0.11,0.0,WeatherDisplay:10.37,2013-11-26 04:54:00,
2013-11-25 22:59:00,34.2,31.6,30.23,SSW,194,1.5,3.5,90,0.00,OVC,,0.11,0.0,WeatherDisplay:10.37,2013-11-26 04:59:00,
2013-11-25 23:01:00,34.2,31.6,30.23,South,187,1.1,2.3,90,0.00,OVC,,0.11,0.0,WeatherDisplay:10.37,2013-11-26 05:01:00,
2013-11-25 23:02:00,34.2,31.6,30.23,South,190,2.4,2.6,90,0.00,OVC,,0.11,0.0,WeatherDisplay:10.37,2013-11-26 05:02:00,
2013-11-25 23:03:00,34.3,31.7,30.23,South,190,2.8,2.8,90,0.00,OVC,,0.11,0.0,WeatherDisplay:10.37,2013-11-26 05:03:00,
2013-11-25 23:08:00,34.2,31.6,30.23,SSW,204,1.0,4.0,90,0.00,OVC,,0.11,0.0,WeatherDisplay:10.37,2013-11-26 05:08:00,
2013-11-25 23:13:00,34.2,31.6,30.22,SW,220,0.0,0.0,90,0.00,OVC,,0.11,0.0,WeatherDisplay:10.37,2013-11-26 05:13:00,
2013-11-25 23:18:00,34.2,31.6,30.22,SW,227,0.0,0.0,90,0.00,OVC,,0.11,0.0,WeatherDisplay:10.37,2013-11-26 05:18:00,
2013-11-25 23:23:00,34.3,31.7,30.22,SW,234,1.0,3.0,90,0.00,OVC,,0.11,0.0,WeatherDisplay:10.37,2013-11-26 05:23:00,
2013-11-25 23:28:00,34.3,31.7,30.22,WSW,255,0.0,1.0,90,0.00,OVC,,0.11,0.0,WeatherDisplay:10.37,2013-11-26 05:28:00,
2013-11-25 23:33:00,34.3,31.7,30.22,WSW,255,0.0,0.0,90,0.00,OVC,,0.11,0.0,WeatherDisplay:10.37,2013-11-26 05:33:00,
2013-11-25 23:38:00,34.3,31.7,30.22,WSW,255,0.0,3.0,90,0.00,OVC,,0.11,0.0,WeatherDisplay:10.37,2013-11-26 05:38:00,
2013-11-25 23:43:00,34.4,31.7,30.22,WSW,255,0.0,1.0,90,0.00,OVC,,0.11,0.0,WeatherDisplay:10.37,2013-11-26 05:43:00,
2013-11-25 23:48:00,34.3,31.7,30.21,WSW,255,0.0,1.0,90,0.00,OVC,,0.11,0.0,WeatherDisplay:10.37,2013-11-26 05:48:00,
2013-11-25 23:53:00,34.3,31.7,30.21,WSW,255,0.0,0.0,90,0.00,OVC,,0.11,0.0,WeatherDisplay:10.37,2013-11-26 05:53:00,
2013-11-25 23:58:00,34.3,31.7,30.20,WSW,255,0.0,1.0,90,0.00,OVC,,0.11,0.0,WeatherDisplay:10.37,2013-11-26 05:58:00,